Time;durP1;ratioP1;P1;durP2;ratioP2;P2;SDS_P1;SDS_P2;PMS_P1;PMS_P2;Temp;Humidity;BMP_temperature;BMP_pressure;BME280_temperature;BME280_humidity;BME280_pressure;Samples;Min_cycle;Max_cycle;Signal;HPM_P1;HPM_P2
2021/03/24 00:01:36;;;;;;;16.60;11.93;;;;;;;2.45;86.40;99572.84;4914364;28;103621;-78
2021/03/24 00:04:03;;;;;;;21.30;14.93;;;;;;;2.32;85.21;99576.69;4893421;28;103065;-78
2021/03/24 00:06:32;;;;;;;18.00;13.00;;;;;;;2.17;86.15;99566.63;4910246;28;103081;-78
2021/03/24 00:08:59;;;;;;;22.40;13.97;;;;;;;2.25;86.40;99564.66;4921306;28;103389;-78
2021/03/24 00:11:27;;;;;;;21.57;14.00;;;;;;;2.15;87.41;99569.28;4909101;28;103244;-78
2021/03/24 00:13:54;;;;;;;22.90;14.60;;;;;;;2.02;88.26;99574.84;4909881;28;103822;-78
2021/03/24 00:16:22;;;;;;;23.40;16.17;;;;;;;1.80;90.12;99571.03;4910328;28;103200;-79
2021/03/24 00:18:50;;;;;;;24.47;16.20;;;;;;;1.98;89.85;99570.56;4910043;28;103694;-78
2021/03/24 00:21:17;;;;;;;20.03;13.17;;;;;;;2.09;89.22;99564.22;4909651;28;104130;-79
2021/03/24 00:23:44;;;;;;;23.33;15.10;;;;;;;2.11;88.79;99572.84;4909911;28;102551;-79
2021/03/24 00:26:11;;;;;;;24.23;15.67;;;;;;;2.01;89.01;99576.56;4910256;28;103226;-78
2021/03/24 00:28:39;;;;;;;21.67;16.00;;;;;;;1.99;89.50;99582.72;4908173;28;103671;-78
2021/03/24 00:31:07;;;;;;;29.63;16.20;;;;;;;1.89;90.28;99583.81;4879962;28;105791;-78
2021/03/24 00:33:34;;;;;;;25.47;16.50;;;;;;;1.93;90.03;99573.31;4910039;28;102891;-78
2021/03/24 00:36:01;;;;;;;21.60;13.87;;;;;;;1.94;90.19;99569.78;4909706;28;103059;-79
2021/03/24 00:38:28;;;;;;;22.03;14.50;;;;;;;2.03;89.52;99573.91;4908336;28;103398;-78
2021/03/24 00:40:58;;;;;;;22.90;14.83;;;;;;;2.12;88.99;99568.50;4883226;28;105533;-78
2021/03/24 00:43:26;;;;;;;19.67;13.53;;;;;;;2.21;88.96;99565.66;4914041;28;102895;-78
2021/03/24 00:45:55;;;;;;;19.80;12.57;;;;;;;2.22;88.51;99559.53;4915560;28;102802;-78
2021/03/24 00:48:24;;;;;;;19.03;12.37;;;;;;;2.31;88.06;99564.53;4924146;28;103901;-78
2021/03/24 00:50:52;;;;;;;24.07;14.20;;;;;;;2.29;87.35;99556.75;4913055;28;103236;-78
2021/03/24 00:53:19;;;;;;;14.97;10.93;;;;;;;2.36;87.40;99565.25;4893737;28;103068;-78
2021/03/24 00:55:47;;;;;;;21.67;14.40;;;;;;;2.33;86.75;99562.72;4912418;28;103923;-79
2021/03/24 00:58:15;;;;;;;19.67;15.03;;;;;;;2.26;86.96;99561.19;4911970;28;102918;-79
2021/03/24 01:00:43;;;;;;;20.50;15.07;;;;;;;2.27;87.42;99562.91;4904759;28;103635;-78
2021/03/24 01:03:11;;;;;;;20.60;14.30;;;;;;;2.22;87.71;99564.75;4913374;28;103033;-78
2021/03/24 01:05:40;;;;;;;19.37;14.60;;;;;;;2.17;86.46;99561.41;4913694;28;102970;-78
2021/03/24 01:08:09;;;;;;;18.80;13.97;;;;;;;1.74;87.75;99557.22;4912186;28;104229;-79
2021/03/24 01:10:38;;;;;;;24.00;15.23;;;;;;;1.81;89.29;99562.28;4911508;28;104911;-78
2021/03/24 01:13:06;;;;;;;23.20;16.53;;;;;;;1.66;89.74;99559.16;4913251;28;103102;-78
2021/03/24 01:15:34;;;;;;;21.93;15.67;;;;;;;1.73;90.51;99555.53;4913420;28;103099;-78
2021/03/24 01:18:01;;;;;;;18.87;13.00;;;;;;;1.78;89.39;99552.81;4894871;28;104285;-78
2021/03/24 01:20:34;;;;;;;19.10;12.50;;;;;;;1.89;88.65;99549.94;4895686;28;103132;-78
2021/03/24 01:23:01;;;;;;;24.73;16.13;;;;;;;1.69;89.37;99548.66;4912580;28;103012;-78
2021/03/24 01:25:28;;;;;;;24.50;15.73;;;;;;;1.72;90.66;99546.00;4912952;28;104059;-78
2021/03/24 01:27:56;;;;;;;23.27;15.97;;;;;;;1.64;91.06;99550.53;4912182;28;104006;-77
2021/03/24 01:30:26;;;;;;;21.40;13.70;;;;;;;1.79;90.05;99543.25;4912402;28;103282;-78
2021/03/24 01:32:53;;;;;;;21.27;14.40;;;;;;;1.82;89.37;99546.66;4910729;28;102898;-79
2021/03/24 01:35:22;;;;;;;20.80;15.13;;;;;;;1.84;89.02;99542.25;4895090;28;103276;-78
2021/03/24 01:37:50;;;;;;;18.13;12.03;;;;;;;1.85;88.89;99543.97;4912051;28;105412;-78
2021/03/24 01:40:29;;;;;;;21.50;13.83;;;;;;;1.82;88.41;99543.19;4911170;28;103754;-78
2021/03/24 01:42:58;;;;;;;19.63;12.43;;;;;;;1.80;88.70;99540.59;4897825;28;103123;-78
2021/03/24 01:46:08;;;;;;;20.27;14.03;;;;;;;1.82;88.07;99535.34;4910463;28;102783;-79
2021/03/24 01:48:37;;;;;;;17.33;12.70;;;;;;;1.85;88.37;99537.91;4894819;28;103235;-78
2021/03/24 01:51:06;;;;;;;21.23;13.27;;;;;;;1.92;87.41;99531.63;4911447;28;105461;-78
2021/03/24 01:53:38;;;;;;;17.77;11.60;;;;;;;1.95;86.65;99527.19;4910964;28;103022;-78
2021/03/24 01:56:06;;;;;;;21.00;15.50;;;;;;;1.65;86.73;99528.81;4919210;28;102926;-78
2021/03/24 01:58:34;;;;;;;20.97;14.47;;;;;;;1.32;89.33;99526.94;4893945;28;105003;-78
2021/03/24 02:01:05;;;;;;;22.60;15.03;;;;;;;1.23;90.34;99529.78;4911214;28;103308;-78
2021/03/24 02:03:32;;;;;;;23.10;15.20;;;;;;;1.13;90.97;99525.63;4918073;28;102789;-77
2021/03/24 02:06:05;;;;;;;24.20;15.33;;;;;;;0.93;91.87;99527.78;4918561;28;102676;-78
2021/03/24 02:08:37;;;;;;;25.60;14.70;;;;;;;0.91;92.53;99533.03;4877847;28;104987;-78
2021/03/24 02:11:10;;;;;;;20.57;14.43;;;;;;;1.06;92.58;99537.94;4904075;28;103298;-78
2021/03/24 02:13:42;;;;;;;20.53;13.20;;;;;;;1.21;91.95;99528.09;4912472;28;102892;-78
2021/03/24 02:16:25;;;;;;;17.73;11.80;;;;;;;1.30;90.47;99525.25;4895592;28;102712;-78
2021/03/24 02:18:56;;;;;;;21.40;15.17;;;;;;;1.19;89.86;99525.50;4901903;28;104712;-78
2021/03/24 02:21:27;;;;;;;22.30;14.93;;;;;;;1.25;89.71;99529.72;4910714;28;103752;-78
2021/03/24 02:24:08;;;;;;;17.63;13.00;;;;;;;1.32;89.43;99532.16;4912278;28;102837;-78
2021/03/24 02:26:41;;;;;;;15.67;11.00;;;;;;;1.38;88.91;99529.41;4911983;28;103832;-78
2021/03/24 02:29:13;;;;;;;20.30;12.53;;;;;;;1.45;88.27;99523.19;4906482;28;104042;-78
2021/03/24 02:31:40;;;;;;;24.10;14.07;;;;;;;1.18;88.13;99522.03;4892973;28;105065;-79
2021/03/24 02:34:12;;;;;;;18.60;13.97;;;;;;;1.20;88.74;99527.22;4896359;28;102557;-78
2021/03/24 02:36:40;;;;;;;18.77;14.10;;;;;;;1.14;89.16;99522.16;4914308;28;103062;-78
2021/03/24 02:39:11;;;;;;;20.77;15.77;;;;;;;1.22;88.72;99525.44;4910888;28;105509;-79
2021/03/24 02:41:40;;;;;;;17.70;13.07;;;;;;;1.29;88.48;99521.84;4904945;28;103781;-78
2021/03/24 02:44:10;;;;;;;19.93;13.13;;;;;;;1.24;88.25;99518.44;4911724;28;103024;-78
2021/03/24 02:46:40;;;;;;;21.40;15.37;;;;;;;1.14;88.82;99514.34;4912430;28;102985;-78
2021/03/24 02:49:08;;;;;;;25.53;15.47;;;;;;;0.95;90.31;99515.63;4894126;28;104168;-78
2021/03/24 02:51:37;;;;;;;23.53;17.53;;;;;;;0.94;90.47;99512.16;4911014;28;104329;-78
2021/03/24 02:54:09;;;;;;;24.07;15.30;;;;;;;0.92;90.86;99518.28;4892941;28;102967;-78
2021/03/24 02:56:37;;;;;;;22.00;14.40;;;;;;;0.62;93.42;99521.50;4909139;28;104851;-78
2021/03/24 02:59:04;;;;;;;24.97;15.97;;;;;;;0.68;94.42;99522.22;4911055;28;103065;-78
2021/03/24 03:01:40;;;;;;;24.97;17.57;;;;;;;0.89;93.39;99520.97;4909483;28;105580;-78
2021/03/24 03:04:15;;;;;;;17.27;13.93;;;;;;;1.06;92.87;99527.53;4922423;28;103109;-78
2021/03/24 03:06:44;;;;;;;21.40;15.17;;;;;;;1.04;91.97;99520.63;4918358;28;102695;-78
2021/03/24 03:09:21;;;;;;;21.13;16.47;;;;;;;0.97;92.32;99524.25;4910740;28;103867;-78
2021/03/24 03:11:56;;;;;;;18.57;13.77;;;;;;;1.04;92.29;99520.63;4911060;28;103460;-78
2021/03/24 03:14:32;;;;;;;21.07;13.83;;;;;;;1.05;91.44;99525.81;4920998;28;102949;-78
2021/03/24 03:17:06;;;;;;;18.90;12.13;;;;;;;1.12;90.96;99523.94;4911507;28;102815;-78
2021/03/24 03:19:38;;;;;;;16.23;12.33;;;;;;;1.15;90.52;99522.09;4920015;28;102762;-77
2021/03/24 03:22:10;;;;;;;25.83;14.73;;;;;;;1.13;89.94;99536.03;4926984;28;102709;-76
2021/03/24 03:24:42;;;;;;;21.10;14.40;;;;;;;1.05;90.14;99527.53;4921454;28;102429;-78
2021/03/24 03:27:11;;;;;;;23.27;15.77;;;;;;;0.93;90.85;99525.19;4907307;28;102901;-79
2021/03/24 03:29:41;;;;;;;26.90;17.43;;;;;;;0.79;91.94;99524.63;4902181;28;103420;-78
2021/03/24 03:32:11;;;;;;;26.00;18.17;;;;;;;0.74;93.03;99516.06;4909684;28;103883;-78
2021/03/24 03:34:41;;;;;;;22.17;14.93;;;;;;;0.88;92.41;99521.84;4908648;28;102718;-78
2021/03/24 03:37:08;;;;;;;22.00;17.20;;;;;;;0.99;91.47;99517.25;4899742;28;103042;-78
2021/03/24 03:39:36;;;;;;;23.73;18.50;;;;;;;0.96;91.38;99522.53;4908504;28;103184;-79
2021/03/24 03:42:05;;;;;;;23.50;17.37;;;;;;;0.85;93.13;99520.16;4924874;28;103813;-78
2021/03/24 03:44:34;;;;;;;19.50;15.47;;;;;;;0.92;92.50;99515.69;4910653;28;102913;-78
2021/03/24 03:47:08;;;;;;;19.60;16.17;;;;;;;1.01;92.28;99516.34;4909348;28;102811;-78
2021/03/24 03:49:38;;;;;;;23.67;17.93;;;;;;;0.91;91.73;99514.81;4909309;28;103766;-78
2021/03/24 03:52:36;;;;;;;23.77;17.23;;;;;;;0.97;92.42;99513.84;4907523;28;102939;-78
2021/03/24 03:55:15;;;;;;;23.67;16.40;;;;;;;1.07;91.79;99510.16;4892045;28;103272;-79
2021/03/24 03:57:51;;;;;;;28.37;18.67;;;;;;;0.90;91.96;99512.28;4890860;28;102856;-78
2021/03/24 04:00:23;;;;;;;19.73;16.13;;;;;;;0.99;92.06;99504.25;4905764;28;104654;-79
2021/03/24 04:02:56;;;;;;;24.60;17.03;;;;;;;0.98;91.87;99505.16;4908023;28;103778;-78
2021/03/24 04:05:31;;;;;;;20.80;14.33;;;;;;;1.00;91.26;99504.25;4907055;28;102654;-77
2021/03/24 04:08:02;;;;;;;21.50;15.93;;;;;;;1.07;91.28;99510.16;4908420;28;102530;-79
2021/03/24 04:10:33;;;;;;;17.63;13.60;;;;;;;1.14;91.21;99501.34;4918989;28;103956;-78
2021/03/24 04:13:02;;;;;;;20.93;15.70;;;;;;;1.18;90.18;99497.75;4907185;28;103702;-79
2021/03/24 04:15:31;;;;;;;22.53;17.53;;;;;;;0.91;91.18;99508.75;4908775;28;103024;-77
2021/03/24 04:18:01;;;;;;;23.80;17.20;;;;;;;0.95;91.65;99526.03;4907859;28;102449;-79
2021/03/24 04:20:32;;;;;;;24.73;16.63;;;;;;;0.87;92.12;99512.34;4906863;28;103886;-79
2021/03/24 04:23:01;;;;;;;23.40;17.40;;;;;;;0.84;92.75;99522.81;4892740;28;103222;-82
2021/03/24 04:25:37;;;;;;;22.40;16.13;;;;;;;0.85;92.17;99509.75;4913285;28;102463;-88
2021/03/24 04:28:05;;;;;;;24.90;17.60;;;;;;;0.71;92.94;99510.91;4913564;28;102227;-87
2021/03/24 04:30:37;;;;;;;18.47;13.73;;;;;;;0.87;92.55;99507.13;4884253;28;103958;-86
2021/03/24 04:33:04;;;;;;;27.10;18.50;;;;;;;0.75;91.94;99513.44;4909655;28;103104;-86
2021/03/24 04:35:33;;;;;;;22.53;15.03;;;;;;;0.81;92.69;99512.47;4914875;28;102288;-88
2021/03/24 04:38:04;;;;;;;23.70;17.43;;;;;;;0.84;92.27;99515.00;4915188;28;102916;-80
2021/03/24 04:40:39;;;;;;;20.03;14.23;;;;;;;0.96;91.83;99512.13;4911649;28;103108;-84
2021/03/24 04:46:09;;;;;;;20.43;16.17;;;;;;;0.90;91.06;99513.09;5608521;23;104865;31
2021/03/24 04:48:40;;;;;;;24.50;17.77;;;;;;;0.87;91.43;99512.34;5072716;23;103253;-85
2021/03/24 04:51:11;;;;;;;19.53;14.90;;;;;;;0.85;91.22;99504.53;4926949;28;103146;-89
2021/03/24 04:53:42;;;;;;;19.33;13.67;;;;;;;0.92;90.99;99507.88;4920100;28;102848;-88
2021/03/24 04:56:12;;;;;;;24.13;16.13;;;;;;;0.88;90.79;99508.81;4905174;28;102759;-88
2021/03/24 04:58:42;;;;;;;19.80;14.13;;;;;;;0.97;91.06;99519.03;4919694;28;102639;-84
2021/03/24 05:01:14;;;;;;;21.70;15.63;;;;;;;0.94;91.07;99517.38;4916402;28;105124;-88
2021/03/24 05:03:44;;;;;;;18.30;14.13;;;;;;;0.96;91.31;99522.53;4923263;28;102616;-86
2021/03/24 05:06:27;;;;;;;22.93;15.83;;;;;;;0.81;90.81;99507.25;5192005;23;104806;31
2021/03/24 05:08:55;;;;;;;21.33;14.93;;;;;;;0.57;91.85;99508.59;4891059;28;103636;-85
2021/03/24 05:11:27;;;;;;;21.97;16.80;;;;;;;0.67;92.74;99509.28;5463754;23;104729;-85
2021/03/24 05:14:17;;;;;;;22.33;15.83;;;;;;;0.71;92.71;99510.91;4881665;28;103514;-88
2021/03/24 05:16:47;;;;;;;21.50;15.73;;;;;;;0.70;92.38;99520.47;4876496;28;101653;-86
2021/03/24 05:19:21;;;;;;;23.83;15.77;;;;;;;0.75;92.26;99523.84;4881368;28;102193;-88
2021/03/24 05:21:56;;;;;;;20.50;14.37;;;;;;;0.87;91.95;99525.34;4876890;28;102318;-86
2021/03/24 05:24:27;;;;;;;21.10;14.43;;;;;;;0.92;91.59;99523.50;4874785;28;104022;-78
2021/03/24 05:27:02;;;;;;;21.17;15.90;;;;;;;0.82;91.54;99521.94;4871756;28;103216;-82
2021/03/24 05:29:36;;;;;;;22.13;15.53;;;;;;;0.74;92.21;99534.25;4874554;28;102682;-86
2021/03/24 05:32:05;;;;;;;20.77;16.13;;;;;;;0.79;92.47;99538.47;4892634;28;102557;-83
2021/03/24 05:34:35;;;;;;;21.27;16.43;;;;;;;0.80;92.66;99536.75;4885489;28;102801;-88
2021/03/24 05:37:08;;;;;;;21.27;15.53;;;;;;;0.81;92.26;99539.34;4875743;28;103125;-87
2021/03/24 05:39:37;;;;;;;19.43;14.87;;;;;;;0.90;92.17;99538.28;4882061;28;102928;-83
2021/03/24 05:42:26;;;;;;;17.40;13.53;;;;;;;0.97;91.67;99538.13;4869052;28;103192;-87
2021/03/24 05:45:13;;;;;;;23.73;16.57;;;;;;;0.94;91.80;99537.31;4868247;28;102746;-86
2021/03/24 05:47:56;;;;;;;17.97;13.03;;;;;;;1.09;91.56;99544.81;4877353;28;103101;-86
2021/03/24 05:50:37;;;;;;;22.83;17.67;;;;;;;1.09;90.10;99543.09;4870704;28;102636;-86
2021/03/24 05:53:19;;;;;;;17.60;13.00;;;;;;;1.22;90.37;99542.81;4871928;28;102913;-87
2021/03/24 05:55:54;;;;;;;18.17;13.40;;;;;;;1.27;89.85;99531.41;4867619;28;103119;-88
2021/03/24 05:58:35;;;;;;;22.97;15.20;;;;;;;1.35;90.14;99541.66;4866339;28;102902;-79
2021/03/24 06:01:07;;;;;;;22.83;17.07;;;;;;;1.37;90.20;99551.16;4870941;28;102928;-87
2021/03/24 06:03:53;;;;;;;20.23;16.23;;;;;;;1.37;89.91;99539.88;4870314;28;103267;-85
2021/03/24 06:06:52;;;;;;;25.03;16.83;;;;;;;1.36;90.53;99549.44;4854192;28;106894;-87
2021/03/24 06:09:50;;;;;;;22.17;16.47;;;;;;;1.44;90.50;99544.91;4870499;28;102915;-87
2021/03/24 06:12:40;;;;;;;23.47;14.97;;;;;;;1.59;90.21;99549.78;4852661;28;102719;-87
2021/03/24 06:15:37;;;;;;;17.13;14.17;;;;;;;1.45;89.93;99550.97;4871134;28;102592;-85
2021/03/24 06:18:46;;;;;;;20.77;13.60;;;;;;;1.64;90.37;99554.88;4829577;28;103956;-87
2021/03/24 06:21:24;;;;;;;25.13;16.43;;;;;;;1.62;90.46;99557.53;4793031;29;103011;-89
2021/03/24 06:24:19;;;;;;;25.00;16.70;;;;;;;1.75;89.31;99556.34;4783197;29;103126;-86
2021/03/24 06:27:25;;;;;;;21.37;14.93;;;;;;;1.90;88.95;99562.09;4855718;28;103274;-87
2021/03/24 06:30:36;;;;;;;24.73;17.97;;;;;;;1.73;89.22;99555.53;4854106;28;103878;-87
2021/03/24 06:33:15;;;;;;;21.47;15.80;;;;;;;1.85;90.01;99556.13;4846297;28;104188;-87
2021/03/24 06:36:17;;;;;;;24.30;17.90;;;;;;;1.90;89.19;99551.66;4865328;28;102561;-88
2021/03/24 06:39:13;;;;;;;21.50;14.63;;;;;;;2.00;89.20;99564.44;4868169;28;103151;-87
2021/03/24 06:42:11;;;;;;;22.80;17.07;;;;;;;2.07;88.18;99560.78;4868209;28;104825;-89
2021/03/24 06:44:55;;;;;;;24.33;16.77;;;;;;;2.00;88.88;99560.97;4872309;28;102560;-86
2021/03/24 06:47:34;;;;;;;25.00;17.47;;;;;;;1.93;89.41;99557.66;4852882;28;102909;-82
2021/03/24 06:50:35;;;;;;;24.50;17.10;;;;;;;1.93;89.89;99562.00;4868299;28;104201;-81
2021/03/24 06:53:34;;;;;;;19.63;16.33;;;;;;;2.05;88.53;99552.13;4874355;28;103501;-84
2021/03/24 06:56:30;;;;;;;23.37;15.87;;;;;;;2.13;88.89;99567.59;4874716;28;103242;-82
2021/03/24 06:59:34;;;;;;;21.87;16.13;;;;;;;2.45;88.39;99561.56;4858260;28;103083;-81
2021/03/24 07:02:43;;;;;;;22.63;17.20;;;;;;;2.69;86.84;99561.78;4865504;28;103287;-84
2021/03/24 07:05:40;;;;;;;18.73;14.83;;;;;;;2.87;85.86;99566.47;4837973;28;105711;-87
2021/03/24 07:08:23;;;;;;;22.47;14.80;;;;;;;3.05;86.36;99564.25;4868061;28;102801;-86
2021/03/24 07:11:04;;;;;;;25.93;16.50;;;;;;;3.05;85.74;99564.25;4869302;28;103074;-84
2021/03/24 07:14:00;;;;;;;22.73;15.47;;;;;;;3.08;85.63;99564.19;4860092;28;102825;-83
2021/03/24 07:16:50;;;;;;;21.73;14.97;;;;;;;3.24;84.68;99573.28;4866763;28;102993;-84
2021/03/24 07:19:59;;;;;;;23.73;15.60;;;;;;;3.46;84.17;99569.13;4863804;28;103677;-87
2021/03/24 07:22:39;;;;;;;25.30;15.37;;;;;;;3.76;83.21;99573.41;4832113;28;102871;-88
2021/03/24 07:25:24;;;;;;;27.50;16.33;;;;;;;3.87;82.07;99568.72;4869574;28;103190;-85
2021/03/24 07:28:20;;;;;;;24.70;15.97;;;;;;;4.11;81.50;99569.69;4875517;28;102751;-86
2021/03/24 07:31:05;;;;;;;26.10;16.07;;;;;;;4.22;80.74;99571.94;4861540;28;103787;-88
2021/03/24 07:33:39;;;;;;;24.73;16.63;;;;;;;4.46;80.49;99576.38;4871638;28;103413;-89
2021/03/24 07:36:28;;;;;;;26.80;18.30;;;;;;;4.64;79.41;99579.22;4858738;28;104247;-87
2021/03/24 07:39:23;;;;;;;20.60;17.00;;;;;;;5.12;77.53;99574.00;4870853;28;103072;-88
2021/03/24 07:42:23;;;;;;;23.43;16.60;;;;;;;5.47;76.93;99574.47;4862236;28;104383;-89
2021/03/24 07:45:01;;;;;;;19.57;14.80;;;;;;;5.88;76.13;99578.97;4857739;28;103051;-90
2021/03/24 07:48:07;;;;;;;20.57;15.67;;;;;;;6.05;73.84;99580.94;4866460;28;102904;-91
2021/03/24 07:50:37;;;;;;;19.47;15.73;;;;;;;6.30;74.06;99577.25;4808326;28;103186;-89
2021/03/24 07:53:15;;;;;;;20.37;15.80;;;;;;;6.62;73.05;99582.94;4858602;28;102584;-90
2021/03/24 07:55:47;;;;;;;21.97;15.70;;;;;;;6.69;71.54;99579.97;4869633;28;102905;-90
2021/03/24 07:58:36;;;;;;;19.87;14.60;;;;;;;6.96;72.65;99573.50;4876528;28;102427;-90
2021/03/24 08:01:13;;;;;;;19.40;14.33;;;;;;;7.33;71.66;99572.72;4858031;29;102659;-89
2021/03/24 08:03:52;;;;;;;19.17;15.47;;;;;;;7.18;68.94;99568.19;4890183;28;101598;-89
2021/03/24 08:06:30;;;;;;;19.20;15.73;;;;;;;7.63;70.84;99569.63;4861398;29;101655;-89
2021/03/24 08:09:16;;;;;;;19.90;16.00;;;;;;;7.85;68.07;99554.53;4852666;28;103806;-89
2021/03/24 08:11:54;;;;;;;17.50;14.60;;;;;;;8.42;68.63;99571.94;4874441;28;102732;-90
2021/03/24 08:14:50;;;;;;;21.07;15.93;;;;;;;8.57;66.82;99563.25;4897807;28;101619;-87
2021/03/24 08:17:32;;;;;;;19.97;15.17;;;;;;;8.84;67.43;99564.50;4903927;28;102512;-85
2021/03/24 08:20:24;;;;;;;20.50;15.83;;;;;;;8.98;65.54;99561.13;4894606;28;102974;-84
2021/03/24 08:23:00;;;;;;;21.60;16.10;;;;;;;9.52;63.28;99558.19;4864342;29;102664;-83
2021/03/24 08:26:05;;;;;;;21.43;16.47;;;;;;;9.45;63.32;99562.09;4886596;28;101695;-87
2021/03/24 08:28:53;;;;;;;18.77;15.53;;;;;;;9.93;62.82;99563.81;4896661;28;102310;-84
2021/03/24 08:32:11;;;;;;;22.47;14.47;;;;;;;10.18;61.53;99565.94;4896127;28;102849;-81
2021/03/24 08:35:32;;;;;;;22.83;16.13;;;;;;;10.31;60.63;99554.59;4880991;28;101922;-80
2021/03/24 08:38:16;;;;;;;22.20;16.10;;;;;;;10.27;59.77;99554.88;4818523;29;101923;-81
2021/03/24 08:41:09;;;;;;;21.07;15.73;;;;;;;10.64;60.21;99546.47;4888045;28;103381;-81
2021/03/24 08:46:44;;;;;;;22.50;15.90;;;;;;;11.35;57.57;99544.75;5373709;23;104716;-82
2021/03/24 08:49:17;;;;;;;19.93;15.27;;;;;;;11.49;56.55;99541.25;4933924;28;102260;-78
2021/03/24 08:52:06;;;;;;;17.23;14.70;;;;;;;11.21;57.16;99535.97;4935038;28;102437;-81
2021/03/24 08:54:59;;;;;;;19.47;15.43;;;;;;;11.35;56.21;99534.19;4934609;28;102675;-81
2021/03/24 08:57:51;;;;;;;17.57;14.17;;;;;;;12.02;56.90;99536.06;4929553;28;104531;-81
2021/03/24 09:00:34;;;;;;;23.57;16.07;;;;;;;11.13;57.07;99532.94;4933988;28;102153;-81
2021/03/24 09:03:29;;;;;;;21.93;14.93;;;;;;;11.49;56.41;99543.91;4934193;28;102638;-81
2021/03/24 09:06:05;;;;;;;24.53;15.53;;;;;;;11.43;56.74;99531.91;4938117;28;102293;-81
2021/03/24 09:08:38;;;;;;;21.83;15.27;;;;;;;11.75;55.47;99531.69;4921022;28;104040;-80
2021/03/24 09:11:34;;;;;;;18.40;14.70;;;;;;;11.54;57.63;99529.44;4928306;28;102213;-82
2021/03/24 09:14:33;;;;;;;18.93;14.87;;;;;;;12.31;54.82;99542.09;4940138;28;102239;-82
2021/03/24 09:17:38;;;;;;;21.00;15.90;;;;;;;12.15;54.00;99536.94;4916315;28;102819;-81
2021/03/24 09:20:47;;;;;;;21.13;15.93;;;;;;;12.72;54.02;99532.22;4918208;28;102773;-81
2021/03/24 09:24:17;;;;;;;20.37;14.93;;;;;;;12.65;54.32;99538.91;4892682;28;103910;-81
2021/03/24 09:27:32;;;;;;;21.07;15.33;;;;;;;12.71;52.79;99535.84;4928190;28;101760;-80
2021/03/24 09:30:25;;;;;;;17.77;15.33;;;;;;;13.28;50.09;99544.25;4859252;28;102718;-82
2021/03/24 09:36:19;;;;;;;17.13;13.57;;;;;;;13.23;51.57;99527.81;5631246;23;105423;-80
2021/03/24 09:38:52;;;;;;;16.33;13.40;;;;;;;13.60;53.13;99530.50;4938224;28;102072;-81
2021/03/24 09:44:32;;;;;;;19.03;14.90;;;;;;;13.86;49.88;99511.75;4802702;26;101809;-82
2021/03/24 09:50:29;;;;;;;19.80;15.93;;;;;;;13.15;51.98;99519.53;5440104;23;105193;-80
2021/03/24 09:53:18;;;;;;;20.43;15.07;;;;;;;12.70;52.07;99518.22;5494450;23;104421;-80
2021/03/24 09:55:59;;;;;;;22.30;15.93;;;;;;;13.70;49.60;99510.28;4927633;23;102883;-79
2021/03/24 09:58:44;;;;;;;16.20;13.23;;;;;;;14.15;50.51;99516.69;4982931;23;104738;-80
2021/03/24 10:01:26;;;;;;;14.03;12.40;;;;;;;14.25;49.28;99507.97;5057209;23;105401;-81
2021/03/24 10:04:06;;;;;;;20.27;15.03;;;;;;;13.68;49.33;99506.91;5043964;23;103793;-80
2021/03/24 10:06:45;;;;;;;22.83;16.27;;;;;;;13.67;50.23;99500.75;4964515;23;103897;-80
2021/03/24 10:09:21;;;;;;;16.20;13.73;;;;;;;13.07;51.30;99503.31;4936623;28;102553;-82
2021/03/24 10:11:59;;;;;;;16.27;14.57;;;;;;;13.11;51.15;99496.81;4945259;28;102646;-81
2021/03/24 10:14:37;;;;;;;19.07;16.93;;;;;;;13.59;50.11;99500.44;4936949;28;102571;-81
2021/03/24 10:17:13;;;;;;;18.57;15.33;;;;;;;14.35;50.36;99487.72;4940548;28;102684;-81
2021/03/24 10:19:46;;;;;;;18.30;14.10;;;;;;;14.26;49.63;99499.00;4956122;28;102300;-82
2021/03/24 10:22:20;;;;;;;17.60;14.03;;;;;;;14.24;48.85;99500.09;4912517;28;102913;-79
2021/03/24 10:24:58;;;;;;;17.63;15.10;;;;;;;14.27;48.36;99502.50;4901485;28;104536;-79
2021/03/24 10:27:29;;;;;;;14.17;12.50;;;;;;;14.59;49.54;99486.84;4913071;28;102703;-80
2021/03/24 10:30:08;;;;;;;17.23;14.03;;;;;;;13.68;47.85;99490.97;4885887;28;103077;-80
2021/03/24 10:32:41;;;;;;;20.03;15.63;;;;;;;12.90;50.66;99489.47;4898252;28;102611;-78
2021/03/24 10:35:31;;;;;;;19.33;14.97;;;;;;;12.97;50.50;99482.81;4911925;28;103207;-80
2021/03/24 10:38:13;;;;;;;19.70;15.40;;;;;;;13.51;50.41;99483.38;4905065;28;103109;-79
2021/03/24 10:40:43;;;;;;;16.07;13.73;;;;;;;14.13;51.04;99470.81;4912972;28;102463;-79
2021/03/24 10:43:15;;;;;;;16.30;14.33;;;;;;;13.87;48.74;99472.72;4913067;28;103474;-80
2021/03/24 10:45:49;;;;;;;15.83;14.23;;;;;;;13.82;49.25;99465.13;4912711;28;105027;-80
2021/03/24 10:48:22;;;;;;;15.37;13.57;;;;;;;14.32;48.37;99463.16;4912669;28;104801;-80
2021/03/24 10:50:59;;;;;;;18.23;13.73;;;;;;;13.91;48.90;99467.09;4910976;28;102908;-80
2021/03/24 10:53:29;;;;;;;17.70;13.57;;;;;;;14.11;51.64;99462.09;4892183;28;102668;-80
2021/03/24 10:56:16;;;;;;;19.80;14.43;;;;;;;13.63;50.03;99466.56;4884169;28;105840;-80
2021/03/24 10:58:53;;;;;;;17.70;15.53;;;;;;;12.32;51.87;99463.47;4909509;28;103001;-79
2021/03/24 11:01:26;;;;;;;17.23;14.77;;;;;;;12.51;52.67;99463.91;4895156;28;103012;-80
2021/03/24 11:04:16;;;;;;;15.80;14.17;;;;;;;13.05;51.96;99461.91;4915204;28;103016;-81
2021/03/24 11:06:53;;;;;;;14.60;12.80;;;;;;;13.32;51.15;99463.47;4912289;28;103961;-80
2021/03/24 11:09:45;;;;;;;19.37;14.40;;;;;;;13.67;49.83;99462.75;4908717;28;103111;-80
2021/03/24 11:12:17;;;;;;;20.00;13.87;;;;;;;14.55;49.63;99448.13;4910231;28;102954;-80
2021/03/24 11:15:00;;;;;;;18.37;15.03;;;;;;;13.18;49.09;99455.66;4911807;28;102884;-81
2021/03/24 11:17:33;;;;;;;15.90;13.60;;;;;;;13.43;49.89;99451.22;4905746;28;103869;-80
2021/03/24 11:20:05;;;;;;;15.77;13.37;;;;;;;14.42;48.10;99440.25;4890727;28;104884;-79
2021/03/24 11:22:46;;;;;;;21.57;14.63;;;;;;;14.57;48.46;99438.25;4904171;28;102769;-79
2021/03/24 11:25:25;;;;;;;17.60;15.00;;;;;;;15.09;47.86;99435.88;4908717;28;102960;-80
2021/03/24 11:27:55;;;;;;;21.23;16.10;;;;;;;13.81;50.07;99431.53;4909459;28;103946;-80
2021/03/24 11:30:35;;;;;;;20.13;16.33;;;;;;;14.80;49.51;99429.31;4909277;28;103997;-80
2021/03/24 11:33:09;;;;;;;20.93;15.90;;;;;;;14.49;49.04;99439.66;4908284;28;103030;-80
2021/03/24 11:35:45;;;;;;;19.27;15.67;;;;;;;14.82;48.16;99430.06;4909900;28;102673;-79
2021/03/24 11:38:26;;;;;;;18.20;15.70;;;;;;;13.66;50.07;99431.84;4933885;28;104613;-82
2021/03/24 11:56:59;;;;;;;17.50;14.73;;;;;;;14.35;50.53;99429.25;5780961;23;106432;31
2021/03/24 12:02:56;;;;;;;19.70;14.43;;;;;;;15.45;48.57;99411.63;5987628;23;104788;31
2021/03/24 12:08:47;;;;;;;19.50;16.10;;;;;;;15.13;47.52;99416.00;5141775;23;105385;-78
2021/03/24 12:17:40;;;;;;;16.00;13.57;;;;;;;17.09;44.92;99403.03;5476238;23;105508;-80
2021/03/24 13:14:29;;;;;;;17.13;15.05;;;;;;;15.30;48.09;99335.63;4856317;28;103771;-81
2021/03/24 13:17:02;;;;;;;15.25;13.65;;;;;;;16.06;47.86;99331.97;4844016;28;103272;-80
2021/03/24 13:19:41;;;;;;;16.80;14.55;;;;;;;15.41;47.78;99329.47;4850178;29;102971;-82
2021/03/24 13:22:14;;;;;;;14.10;12.40;;;;;;;15.94;47.46;99317.03;5096504;23;103320;-79
2021/03/24 13:36:36;;;;;;;21.33;15.63;;;;;;;14.98;48.79;99301.03;5900453;23;105765;-79
2021/03/24 13:42:50;;;;;;;17.67;14.60;;;;;;;15.52;48.48;99290.34;4898349;28;103755;-79
2021/03/24 13:49:40;;;;;;;16.27;14.57;;;;;;;15.11;49.09;99292.88;5385137;23;104560;-78
2021/03/24 14:24:57;;;;;;;17.47;13.10;;;;;;;15.37;47.57;99232.16;5139913;23;103612;-79
2021/03/24 14:27:30;;;;;;;16.03;12.17;;;;;;;15.42;47.67;99232.63;4929193;28;102704;-81
2021/03/24 14:30:07;;;;;;;15.27;11.23;;;;;;;15.73;47.46;99236.25;4928200;28;103460;-77
2021/03/24 14:32:54;;;;;;;17.87;11.97;;;;;;;15.64;47.39;99236.03;4875655;28;105429;-78
2021/03/24 14:35:29;;;;;;;17.40;13.17;;;;;;;14.52;47.90;99226.72;4905500;28;102873;-81